Genius — 2CPA7 — position and weather

sailwx.info

Track history (hours):
 
Tides and Currents Weather Stations Pressure Air Temp Water Temp Dewpoint Dewpoint Depression Visibility Wind Speed Wind Dir Waves Ship Positions

Genius

Last reported at 2015-May-20 12:05 UTC. Time now 2015-May-28 05:56 UTC.
Position N 22°05' E 114°26'.

Length 288 m; draft 8.2 m.

Type: Cargo ship. MMSI: 235074615.

Date/timePositionNaut miles runAvg speedWind from/ knotsBaromVisibWave heightAir tempDewpointWater temp
2015-May-20 12:05N 22°05' E 114°26'16 1.4
2015-May-20 00:28N 22°09' E 114°09'1010.5
2015-May-19 23:33N 22°08' E 114°19'13 0.4
2015-May-18 17:23N 22°04' E 114°32'289 8.7
2015-May-17 08:18N 22°55' E 119°41'  
2015-May-13 18:25N 34°54' E 124°14'35 8.9
2015-May-13 14:32N 35°28' E 124°10'8 8.6
2015-May-13 13:34N 35°37' E 124°09'19 8.9
2015-May-13 11:26N 35°56' E 124°07'12 9.5
2015-May-13 10:09N 36°08' E 124°06'140 8.9
2015-May-12 18:28N 38°05' E 122°30'9 9.9
2015-May-12 17:32N 38°07' E 122°18'12 9.7
2015-May-12 16:18N 38°13' E 122°05'810.1
2015-May-12 15:29N 38°15' E 121°55'1410.0
2015-May-12 14:04N 38°19' E 121°38'7 9.8
2015-May-12 13:18N 38°22' E 121°29'9 9.6
2015-May-12 12:25N 38°24' E 121°18'9 9.2
2015-May-12 11:28N 38°27' E 121°08'19 9.3
2015-May-12 09:26N 38°35' E 120°46'4210.4
2015-May-12 05:22N 38°40' E 119°52'8810.9
2015-May-11 21:19N 38°56' E 118°01'1013.3
2015-May-11 20:34N 38°58' E 117°49'2 2.1
2015-May-11 19:28N 38°59' E 117°46'0 0.0
2015-May-11 18:28N 38°59' E 117°46'0 0.0
2015-May-11 17:28N 38°59' E 117°46'0 0.0
2015-May-11 16:28N 38°59' E 117°46'0 0.0
2015-May-11 15:16N 38°59' E 117°46'0 0.0
2015-May-11 14:28N 38°59' E 117°46'0 0.0
2015-May-11 13:22N 38°59' E 117°46'0 0.0
2015-May-11 12:28N 38°59' E 117°46'0 0.0
2015-May-11 11:28N 38°59' E 117°46'0 0.0
2015-May-11 10:28N 38°59' E 117°46'0 0.0
2015-May-11 09:28N 38°59' E 117°46'0 0.0
2015-May-11 08:28N 38°59' E 117°46'0 0.0
2015-May-11 07:28N 38°59' E 117°46'0 0.0
2015-May-11 06:28N 38°59' E 117°46'0 0.0
2015-May-11 05:28N 38°59' E 117°46'0 0.0
2015-May-11 04:28N 38°59' E 117°46'0 0.0
2015-May-11 03:22N 38°59' E 117°46'0 0.0
2015-May-11 02:28N 38°59' E 117°46'0 0.0
2015-May-11 01:28N 38°59' E 117°46'0 0.0
2015-May-11 00:28N 38°59' E 117°46'0 0.0
2015-May-10 23:28N 38°59' E 117°46'0 0.0
2015-May-10 22:28N 38°59' E 117°46'0 0.0
2015-May-10 21:22N 38°59' E 117°46'0 0.0
2015-May-10 20:28N 38°59' E 117°46'0 0.0
2015-May-10 19:28N 38°59' E 117°46'0 0.0
2015-May-10 18:28N 38°59' E 117°46'0 0.0
2015-May-10 17:28N 38°59' E 117°46'0 0.0
2015-May-10 16:28N 38°59' E 117°46'0 0.0
2015-May-10 15:28N 38°59' E 117°46'0 0.0
2015-May-10 14:28N 38°59' E 117°46'0 0.0
2015-May-10 13:28N 38°59' E 117°46'0 0.0
2015-May-10 12:22N 38°59' E 117°46'  
Track history (hours):
 
Tides and Currents Weather Stations Pressure Air Temp Water Temp Dewpoint Dewpoint Depression Visibility Wind Speed Wind Dir Waves Ship Positions

Genius

Last reported at 2015-May-20 12:05 UTC. Time now 2015-May-28 05:56 UTC.
Position N 22°05' E 114°26'.

Length 288 m; draft 8.2 m.

Type: Cargo ship. MMSI: 235074615.

Date/timePositionNaut miles runAvg speedWind from/ knotsBaromVisibWave heightAir tempDewpointWater temp
2015-May-20 12:05N 22°05' E 114°26'16 1.4
2015-May-20 00:28N 22°09' E 114°09'1010.5
2015-May-19 23:33N 22°08' E 114°19'13 0.4
2015-May-18 17:23N 22°04' E 114°32'289 8.7
2015-May-17 08:18N 22°55' E 119°41'  
2015-May-13 18:25N 34°54' E 124°14'35 8.9
2015-May-13 14:32N 35°28' E 124°10'8 8.6
2015-May-13 13:34N 35°37' E 124°09'19 8.9
2015-May-13 11:26N 35°56' E 124°07'12 9.5
2015-May-13 10:09N 36°08' E 124°06'140 8.9
2015-May-12 18:28N 38°05' E 122°30'9 9.9
2015-May-12 17:32N 38°07' E 122°18'12 9.7
2015-May-12 16:18N 38°13' E 122°05'810.1
2015-May-12 15:29N 38°15' E 121°55'1410.0
2015-May-12 14:04N 38°19' E 121°38'7 9.8
2015-May-12 13:18N 38°22' E 121°29'9 9.6
2015-May-12 12:25N 38°24' E 121°18'9 9.2
2015-May-12 11:28N 38°27' E 121°08'19 9.3
2015-May-12 09:26N 38°35' E 120°46'4210.4
2015-May-12 05:22N 38°40' E 119°52'8810.9
2015-May-11 21:19N 38°56' E 118°01'1013.3
2015-May-11 20:34N 38°58' E 117°49'2 2.1
2015-May-11 19:28N 38°59' E 117°46'0 0.0
2015-May-11 18:28N 38°59' E 117°46'0 0.0
2015-May-11 17:28N 38°59' E 117°46'0 0.0
2015-May-11 16:28N 38°59' E 117°46'0 0.0
2015-May-11 15:16N 38°59' E 117°46'0 0.0
2015-May-11 14:28N 38°59' E 117°46'0 0.0
2015-May-11 13:22N 38°59' E 117°46'0 0.0
2015-May-11 12:28N 38°59' E 117°46'0 0.0
2015-May-11 11:28N 38°59' E 117°46'0 0.0
2015-May-11 10:28N 38°59' E 117°46'0 0.0
2015-May-11 09:28N 38°59' E 117°46'0 0.0
2015-May-11 08:28N 38°59' E 117°46'0 0.0
2015-May-11 07:28N 38°59' E 117°46'0 0.0
2015-May-11 06:28N 38°59' E 117°46'0 0.0
2015-May-11 05:28N 38°59' E 117°46'0 0.0
2015-May-11 04:28N 38°59' E 117°46'0 0.0
2015-May-11 03:22N 38°59' E 117°46'0 0.0
2015-May-11 02:28N 38°59' E 117°46'0 0.0
2015-May-11 01:28N 38°59' E 117°46'0 0.0
2015-May-11 00:28N 38°59' E 117°46'0 0.0
2015-May-10 23:28N 38°59' E 117°46'0 0.0
2015-May-10 22:28N 38°59' E 117°46'0 0.0
2015-May-10 21:22N 38°59' E 117°46'0 0.0
2015-May-10 20:28N 38°59' E 117°46'0 0.0
2015-May-10 19:28N 38°59' E 117°46'0 0.0
2015-May-10 18:28N 38°59' E 117°46'0 0.0
2015-May-10 17:28N 38°59' E 117°46'0 0.0
2015-May-10 16:28N 38°59' E 117°46'0 0.0
2015-May-10 15:28N 38°59' E 117°46'0 0.0
2015-May-10 14:28N 38°59' E 117°46'0 0.0
2015-May-10 13:28N 38°59' E 117°46'0 0.0
2015-May-10 12:22N 38°59' E 117°46'  

Dump ship's entire track history